Airfield :
LOGIN :

Register | Disclaimer

   EN    FR    IT 

 










Legend :    VFR   Marginal VFR   IFR   Intensive IFR   Very Intensive IFR
Visi :
Ceiling :
>= 8 km
>= 3000ft
5 to 8 km
1000 to 3000 ft
1500m to 5 km
500 to 1000 ft
800 to 1500m
200 to 500 ft
< 800m
< 200 ft
Symbols :   Thunderstorms  Fog  Heavy snow  Heavy precipitations  Wind > 20 kt
SIGMETs :     Misc.  Thunderstorms  Icing  Turbulence  Mountain Waves  Volcanic Ashes







- Airport Elevation : 1363 ft


ETIC - Grafenwohr Army Air Field

CURRENT METAR :
  • 261856Z AUTO 27007KT 9999 OVC033 05/M01 A3032 RMK AO2 SLP288 T00471007 $

EXPIRED METARs :
  • 261756Z AUTO 28007KT 9999 BKN042 OVC050 05/M01 A3031 RMK AO2 SLP284 T00501015 10066 20047 53003 $
  • 261656Z AUTO 28007KT 9999 BKN045 OVC050 05/M01 A3031 RMK AO2 SLP284 T00531012 $

TAF TAF ETIC
Valid from the 26 at 12:00 until the 27 at 18:00 UTC


261200Z 2612/2718 29010G15KT 9999 SCT025 OVC035 620355 QNH3028INS
TEMPO 2612/2616 30015G25KT
BECMG 2619/2620 30009KT 9999 BKN035 OVC050 620355 QNH3032INS
BECMG 2623/2624 33007KT 9000 -SHRA SCT008 BKN010 OVC015 610255 QNH3034INS
BECMG 2703/2704 VRB06KT 8000 BR BKN008 OVC012 620255 QNH3037INS
BECMG 2708/2709 31010KT 9999 NSW SCT015 BKN035 620356 QNH3037INS TX06/2712Z TN01/2703Z
No reported NOTAMs for that airfield.



MET'MAP, your aeronautical weather chart ! - Copyright ORBIFLY December 2007 - Disclaimer

ORBIFLY MET'MAP TEAM :

Programming & Development : Alexandra Zaïnal
Concept & Development : Baudouin d'Aumeries
Co-Development & Prog : Marc-Olivier Méhu
Technical & hardware support : Manuel Goepfert

Contact : metmap@orbifly.com




SOURCES & CREDITS :

   NOAA